createdAt,value
2023-05-24T00:00:29.155Z,100358.38
2023-05-24T00:02:57.763Z,100357.09
2023-05-24T00:05:25.847Z,100351.34
2023-05-24T00:07:54.152Z,100341.00
2023-05-24T00:10:21.967Z,100347.16
2023-05-24T00:12:50.453Z,100346.13
2023-05-24T00:15:19.616Z,100348.66
2023-05-24T00:17:47.830Z,100349.91
2023-05-24T00:20:15.675Z,100342.19
2023-05-24T00:22:44.258Z,100343.91
2023-05-24T00:25:11.954Z,100343.03
2023-05-24T00:27:40.326Z,100347.78
2023-05-24T00:30:09.347Z,100331.50
2023-05-24T00:32:38.794Z,100342.66
2023-05-24T00:35:07.343Z,100336.00
2023-05-24T00:37:35.255Z,100337.84
2023-05-24T00:40:04.249Z,100337.22
2023-05-24T00:42:32.191Z,100328.59
2023-05-24T00:44:59.826Z,100318.56
2023-05-24T00:47:27.927Z,100322.28
2023-05-24T00:49:57.490Z,100320.09
2023-05-24T00:52:25.429Z,100314.78
2023-05-24T00:54:53.217Z,100304.50
2023-05-24T00:57:21.595Z,100310.22
2023-05-24T00:59:49.856Z,100305.72
2023-05-24T01:02:18.455Z,100286.72
2023-05-24T01:04:49.185Z,100312.03
2023-05-24T01:07:27.853Z,100311.69
2023-05-24T01:10:11.228Z,100304.59
2023-05-24T01:12:53.114Z,100309.94
2023-05-24T01:15:26.242Z,100316.06
2023-05-24T01:18:05.585Z,100322.88
2023-05-24T01:20:38.288Z,100329.25
2023-05-24T01:23:18.772Z,100323.84
2023-05-24T01:26:07.291Z,100324.78
2023-05-24T01:28:38.339Z,100322.34
2023-05-24T01:31:07.251Z,100325.88
2023-05-24T01:33:34.956Z,100324.94
2023-05-24T01:36:02.884Z,100325.75
2023-05-24T01:38:30.703Z,100331.03
2023-05-24T01:41:05.761Z,100324.50
2023-05-24T01:43:40.644Z,100325.00
2023-05-24T01:46:20.606Z,100337.00
2023-05-24T01:49:00.845Z,100320.16
2023-05-24T01:51:36.790Z,100334.72
2023-05-24T01:54:07.292Z,100336.91
2023-05-24T01:56:36.696Z,100335.19
2023-05-24T01:59:08.380Z,100333.78
2023-05-24T02:01:36.647Z,100333.19
2023-05-24T02:04:04.770Z,100339.00
2023-05-24T02:06:32.690Z,100338.50
2023-05-24T02:09:00.648Z,100335.25
2023-05-24T02:11:28.572Z,100342.53
2023-05-24T02:13:56.278Z,100330.16
2023-05-24T02:16:27.088Z,100333.66
2023-05-24T02:18:54.897Z,100333.66
2023-05-24T02:21:23.651Z,100335.19
2023-05-24T02:23:51.338Z,100341.38
2023-05-24T02:26:19.583Z,100341.81
2023-05-24T02:28:48.185Z,100306.66
2023-05-24T02:31:16.182Z,100334.00
2023-05-24T02:33:45.348Z,100336.72
2023-05-24T02:36:13.400Z,100335.09
2023-05-24T02:38:41.334Z,100338.19
2023-05-24T02:41:09.712Z,100340.63
2023-05-24T02:43:37.368Z,100332.03
2023-05-24T02:46:05.108Z,100332.59
2023-05-24T02:48:32.828Z,100334.06
2023-05-24T02:51:03.476Z,100329.81
2023-05-24T02:53:31.534Z,100329.63
2023-05-24T02:55:59.917Z,100333.28
2023-05-24T02:58:30.506Z,100326.31
2023-05-24T03:00:59.542Z,100332.88
2023-05-24T03:03:27.612Z,100322.97
2023-05-24T03:05:56.078Z,100326.97
2023-05-24T03:08:25.113Z,100336.53
2023-05-24T03:10:54.638Z,100334.44
2023-05-24T03:13:22.607Z,100331.16
2023-05-24T03:15:50.542Z,100333.19
2023-05-24T03:18:18.282Z,100335.63
2023-05-24T03:20:47.152Z,100333.56
2023-05-24T03:23:14.961Z,100332.75
2023-05-24T03:25:44.585Z,100339.03
2023-05-24T03:28:14.669Z,100339.03
2023-05-24T03:30:44.278Z,100338.97
2023-05-24T03:33:12.154Z,100337.00
2023-05-24T03:35:39.990Z,100331.56
2023-05-24T03:38:08.119Z,100342.78
2023-05-24T03:40:38.591Z,100345.06
2023-05-24T03:43:13.526Z,100346.84
2023-05-24T03:45:49.386Z,100342.53
2023-05-24T03:48:17.796Z,100337.78
2023-05-24T03:50:45.812Z,100342.28
2023-05-24T03:53:13.856Z,100336.66
2023-05-24T03:55:41.626Z,100337.25
2023-05-24T03:58:09.579Z,100328.66
2023-05-24T04:00:38.721Z,100327.28
2023-05-24T04:03:07.325Z,100334.00
2023-05-24T04:05:35.500Z,100343.41
2023-05-24T04:08:03.656Z,100341.44
2023-05-24T04:10:31.337Z,100339.53
2023-05-24T04:13:00.895Z,100336.38
2023-05-24T04:15:28.593Z,100346.75
2023-05-24T04:17:58.083Z,100346.59
2023-05-24T04:20:27.585Z,100350.13
2023-05-24T04:22:56.504Z,100352.63
2023-05-24T04:25:24.586Z,100347.47
2023-05-24T04:27:52.571Z,100341.56
2023-05-24T04:30:21.252Z,100343.81
2023-05-24T04:32:49.466Z,100344.41
2023-05-24T04:35:19.388Z,100352.41
2023-05-24T04:37:48.529Z,100352.50
2023-05-24T04:40:17.453Z,100356.22
2023-05-24T04:42:45.422Z,100355.72
2023-05-24T04:45:13.186Z,100365.63
2023-05-24T04:47:42.691Z,100354.13
2023-05-24T04:50:10.982Z,100353.03
2023-05-24T04:52:40.256Z,100351.19
2023-05-24T04:55:08.578Z,100349.81
2023-05-24T04:57:36.582Z,100362.09
2023-05-24T05:00:05.134Z,100366.09
2023-05-24T05:02:33.722Z,100365.50
2023-05-24T05:05:01.433Z,100364.88
2023-05-24T05:07:29.105Z,100358.31
2023-05-24T05:09:58.172Z,100362.59
2023-05-24T05:12:25.945Z,100360.72
2023-05-24T05:14:54.407Z,100367.34
2023-05-24T05:17:22.335Z,100380.19
2023-05-24T05:19:50.318Z,100382.75
2023-05-24T05:22:17.992Z,100377.53
2023-05-24T05:24:46.045Z,100378.56
2023-05-24T05:27:15.219Z,100383.13
2023-05-24T05:29:42.904Z,100381.22
2023-05-24T05:32:11.168Z,100382.16
2023-05-24T05:34:38.815Z,100387.34
2023-05-24T05:37:06.645Z,100371.28
2023-05-24T05:39:34.572Z,100382.03
2023-05-24T05:42:02.396Z,100393.38
2023-05-24T05:44:31.722Z,100371.59
2023-05-24T05:46:59.407Z,100388.88
2023-05-24T05:49:27.365Z,100387.22
2023-05-24T05:51:55.018Z,100389.75
2023-05-24T05:54:22.928Z,100386.22
2023-05-24T05:56:51.017Z,100395.84
2023-05-24T05:59:19.735Z,100387.63
2023-05-24T06:01:49.049Z,100389.06
2023-05-24T06:04:17.633Z,100398.53
2023-05-24T06:06:49.338Z,100394.13
2023-05-24T06:09:17.513Z,100396.81
2023-05-24T06:11:46.083Z,100393.97
2023-05-24T06:14:18.371Z,100403.41
2023-05-24T06:16:47.882Z,100401.66
2023-05-24T06:19:16.527Z,100396.34
2023-05-24T06:21:48.301Z,100399.00
2023-05-24T06:24:20.250Z,100400.28
2023-05-24T06:26:48.666Z,100394.53
2023-05-24T06:29:16.587Z,100399.69
2023-05-24T06:31:44.585Z,100393.78
2023-05-24T06:34:16.913Z,100401.13
2023-05-24T06:36:46.469Z,100408.59
2023-05-24T06:39:14.314Z,100400.44
2023-05-24T06:41:42.574Z,100387.31
2023-05-24T06:44:10.264Z,100407.59
2023-05-24T06:46:38.046Z,100406.97
2023-05-24T06:49:06.153Z,100395.56
2023-05-24T06:51:35.251Z,100411.81
2023-05-24T06:54:04.234Z,100418.81
2023-05-24T06:56:32.017Z,100414.56
2023-05-24T06:59:00.944Z,100420.25
2023-05-24T07:01:29.184Z,100424.59
2023-05-24T07:03:57.266Z,100420.13
2023-05-24T07:06:25.147Z,100431.91
2023-05-24T07:08:54.177Z,100441.53
2023-05-24T07:11:22.353Z,100431.72
2023-05-24T07:13:50.008Z,100436.66
2023-05-24T07:16:17.730Z,100442.63
2023-05-24T07:18:45.438Z,100435.97
2023-05-24T07:21:13.512Z,100445.81
2023-05-24T07:23:41.152Z,100439.00
2023-05-24T07:26:10.770Z,100435.34
2023-05-24T07:28:40.466Z,100438.28
2023-05-24T07:31:10.190Z,100439.13
2023-05-24T07:33:38.393Z,100436.44
2023-05-24T07:36:07.277Z,100423.72
2023-05-24T07:38:35.142Z,100429.47
2023-05-24T07:41:04.955Z,100428.91
2023-05-24T07:43:34.101Z,100439.44
2023-05-24T07:46:01.941Z,100441.56
2023-05-24T07:48:29.686Z,100430.88
2023-05-24T07:50:57.409Z,100431.28
2023-05-24T07:53:25.098Z,100434.69
2023-05-24T07:55:52.750Z,100422.88
2023-05-24T07:58:20.591Z,100430.47
2023-05-24T08:00:49.594Z,100428.00
2023-05-24T08:03:18.277Z,100420.91
2023-05-24T08:05:46.142Z,100417.53
2023-05-24T08:08:13.949Z,100426.94
2023-05-24T08:10:42.035Z,100414.31
2023-05-24T08:13:09.882Z,100407.19
2023-05-24T08:15:38.075Z,100420.66
2023-05-24T08:18:07.127Z,100428.44
2023-05-24T08:20:36.857Z,100431.69
2023-05-24T08:23:04.602Z,100432.06
2023-05-24T08:25:33.188Z,100432.00
2023-05-24T08:28:01.115Z,100435.41
2023-05-24T08:30:29.069Z,100434.41
2023-05-24T08:32:58.441Z,100433.41
2023-05-24T08:35:27.510Z,100442.19
2023-05-24T08:37:55.527Z,100444.84
2023-05-24T08:40:23.951Z,100447.50
2023-05-24T08:42:53.578Z,100444.13
2023-05-24T08:45:25.566Z,100446.50
2023-05-24T08:47:53.718Z,100431.91
2023-05-24T08:50:21.556Z,100441.78
2023-05-24T08:52:52.435Z,100438.91
2023-05-24T08:55:21.214Z,100443.72
2023-05-24T08:57:50.079Z,100436.38
2023-05-24T09:00:19.481Z,100439.19
2023-05-24T09:02:48.023Z,100443.03
2023-05-24T09:05:17.288Z,100442.09
2023-05-24T09:07:46.631Z,100448.06
2023-05-24T09:10:16.649Z,100447.88
2023-05-24T09:12:46.786Z,100442.38
2023-05-24T09:15:14.796Z,100444.19
2023-05-24T09:17:42.525Z,100449.47
2023-05-24T09:20:12.076Z,100450.38
2023-05-24T09:22:42.849Z,100446.19
2023-05-24T09:25:13.904Z,100440.66
2023-05-24T09:27:45.511Z,100443.91
2023-05-24T09:30:16.652Z,100444.38
2023-05-24T09:32:56.239Z,100439.44
2023-05-24T09:35:26.963Z,100436.88
2023-05-24T09:37:59.619Z,100446.25
2023-05-24T09:40:29.210Z,100441.25
2023-05-24T09:43:09.842Z,100430.13
2023-05-24T09:45:44.625Z,100446.59
2023-05-24T09:48:13.421Z,100438.72
2023-05-24T09:50:42.135Z,100429.22
2023-05-24T09:53:10.004Z,100432.50
2023-05-24T09:55:38.388Z,100442.94
2023-05-24T09:58:09.215Z,100438.75
2023-05-24T10:00:41.352Z,100436.25
2023-05-24T10:03:11.113Z,100437.44
2023-05-24T10:05:40.065Z,100441.63
2023-05-24T10:08:09.377Z,100440.69
2023-05-24T10:10:37.556Z,100436.84
2023-05-24T10:13:07.628Z,100447.19
2023-05-24T10:15:35.347Z,100455.22
2023-05-24T10:18:10.401Z,100443.69
2023-05-24T10:20:41.283Z,100443.00
2023-05-24T10:23:11.426Z,100444.81
2023-05-24T10:25:48.374Z,100432.66
2023-05-24T10:28:19.458Z,100433.84
2023-05-24T10:30:55.757Z,100440.03
2023-05-24T10:33:26.137Z,100435.13
2023-05-24T10:35:54.501Z,100412.09
2023-05-24T10:38:24.323Z,100410.22
2023-05-24T10:40:52.879Z,100420.97
2023-05-24T10:43:22.971Z,100415.19
2023-05-24T10:45:52.266Z,100413.59
2023-05-24T10:49:00.496Z,100416.25
2023-05-24T10:51:37.390Z,100410.34
2023-05-24T10:54:19.125Z,100413.47
2023-05-24T10:56:49.545Z,100414.06
2023-05-24T10:59:29.248Z,100413.97
2023-05-24T11:01:58.894Z,100412.56
2023-05-24T11:04:27.316Z,100405.38
2023-05-24T11:06:58.033Z,100409.28
2023-05-24T11:09:27.750Z,100410.78
2023-05-24T11:11:56.649Z,100413.88
2023-05-24T11:14:29.819Z,100415.00
2023-05-24T11:17:01.240Z,100407.66
2023-05-24T11:19:34.964Z,100403.94
2023-05-24T11:22:04.089Z,100386.03
2023-05-24T11:24:32.584Z,100408.22
2023-05-24T11:27:02.167Z,100414.47
2023-05-24T11:29:31.825Z,100397.84
2023-05-24T11:32:04.532Z,100395.69
2023-05-24T11:34:33.134Z,100391.59
2023-05-24T11:37:02.040Z,100394.56
2023-05-24T11:39:31.758Z,100388.00
2023-05-24T11:41:59.852Z,100382.50
2023-05-24T11:44:30.863Z,100387.25
2023-05-24T11:47:01.063Z,100388.28
2023-05-24T11:49:29.422Z,100399.38
2023-05-24T11:51:58.317Z,100388.09
2023-05-24T11:54:27.021Z,100385.34
2023-05-24T11:56:55.472Z,100377.31
2023-05-24T11:59:25.532Z,100375.31
2023-05-24T12:02:01.516Z,100377.47
2023-05-24T12:04:30.842Z,100373.84
2023-05-24T12:06:58.839Z,100360.25
2023-05-24T12:09:27.946Z,100376.31
2023-05-24T12:11:57.559Z,100317.06
2023-05-24T12:14:28.638Z,100375.22
2023-05-24T12:16:57.474Z,100367.06
2023-05-24T12:19:33.638Z,100371.59
2023-05-24T12:22:02.417Z,100370.63
2023-05-24T12:24:32.869Z,100371.16
2023-05-24T12:27:02.540Z,100365.66
2023-05-24T12:29:34.276Z,100374.47
2023-05-24T12:32:01.925Z,100370.75
2023-05-24T12:34:30.968Z,100369.78
2023-05-24T12:36:58.715Z,100356.53
2023-05-24T12:39:31.184Z,100351.75
2023-05-24T12:42:01.931Z,100241.97
2023-05-24T12:44:31.330Z,100356.03
2023-05-24T12:46:59.844Z,100347.97
2023-05-24T12:49:28.146Z,100350.31
2023-05-24T12:51:57.972Z,100345.19
2023-05-24T12:54:27.739Z,100353.78
2023-05-24T12:56:57.588Z,100345.72
2023-05-24T12:59:27.267Z,100314.78
2023-05-24T13:01:56.258Z,100349.91
2023-05-24T13:04:26.315Z,100327.94
2023-05-24T13:06:54.767Z,100341.72
2023-05-24T13:09:25.439Z,100340.28
2023-05-24T13:11:53.936Z,100325.22
2023-05-24T13:14:22.212Z,100339.38
2023-05-24T13:16:50.483Z,100338.13
2023-05-24T13:19:18.665Z,100337.19
2023-05-24T13:21:47.142Z,100331.25
2023-05-24T13:24:17.182Z,100331.19
2023-05-24T13:26:47.207Z,100323.00
2023-05-24T13:31:45.884Z,100312.28
2023-05-24T13:34:13.997Z,100305.78
2023-05-24T13:36:42.034Z,100311.00
2023-05-24T13:39:15.444Z,100311.41
2023-05-24T13:42:01.095Z,100314.75
2023-05-24T13:44:29.427Z,100314.13
2023-05-24T13:46:57.430Z,100321.38
2023-05-24T13:49:25.258Z,100328.66
2023-05-24T13:51:55.483Z,100320.75
2023-05-24T13:54:26.283Z,100318.09
2023-05-24T13:56:57.560Z,100318.44
2023-05-24T13:59:27.277Z,100330.09
2023-05-24T14:01:55.507Z,100319.84
2023-05-24T14:04:23.369Z,100309.63
2023-05-24T14:06:51.245Z,100324.63
2023-05-24T14:09:21.025Z,100326.31
2023-05-24T14:11:49.346Z,100326.75
2023-05-24T14:16:52.041Z,100335.03
2023-05-24T14:19:19.851Z,100338.97
2023-05-24T14:21:48.411Z,100336.41
2023-05-24T14:24:16.119Z,100335.84
2023-05-24T14:26:43.907Z,100335.16
2023-05-24T14:29:12.199Z,100324.84
2023-05-24T14:31:42.265Z,100325.13
2023-05-24T14:34:12.154Z,100330.03
2023-05-24T14:36:41.431Z,100327.13
2023-05-24T14:39:09.390Z,100319.94
2023-05-24T14:41:37.448Z,100333.97
2023-05-24T14:44:05.535Z,100332.50
2023-05-24T14:46:34.916Z,100310.88
2023-05-24T14:49:04.050Z,100324.19
2023-05-24T14:51:33.148Z,100318.31
2023-05-24T14:54:00.856Z,100276.31
2023-05-24T14:56:28.990Z,100317.22
2023-05-24T14:58:57.397Z,100313.81
2023-05-24T15:01:25.548Z,100320.88
2023-05-24T15:03:53.377Z,100321.59
2023-05-24T15:06:21.461Z,100326.41
2023-05-24T15:08:51.860Z,100326.78
2023-05-24T15:11:19.593Z,100330.38
2023-05-24T15:13:47.532Z,100334.13
2023-05-24T15:16:15.324Z,100323.38
2023-05-24T15:18:43.445Z,100321.72
2023-05-24T15:21:11.244Z,100324.22
2023-05-24T15:23:39.190Z,100324.69
2023-05-24T15:26:08.262Z,100319.94
2023-05-24T15:28:35.883Z,100320.72
2023-05-24T15:31:03.987Z,100316.13
2023-05-24T15:33:32.601Z,100317.13
2023-05-24T15:36:00.745Z,100326.06
2023-05-24T15:38:28.466Z,100328.91
2023-05-24T15:40:56.411Z,100332.72
2023-05-24T15:43:25.435Z,100319.84
2023-05-24T15:45:53.769Z,100322.25
2023-05-24T15:48:22.768Z,100320.31
2023-05-24T15:51:09.373Z,100319.22
2023-05-24T15:53:38.694Z,100319.16
2023-05-24T15:56:07.213Z,100311.44
2023-05-24T15:58:36.600Z,100315.19
2023-05-24T16:01:04.293Z,100311.03
2023-05-24T16:03:32.465Z,100304.34
2023-05-24T16:06:00.282Z,100306.34
2023-05-24T16:08:29.079Z,100303.59
2023-05-24T16:10:57.547Z,100317.47
2023-05-24T16:13:25.594Z,100307.44
2023-05-24T16:15:55.016Z,100305.69
2023-05-24T16:18:23.519Z,100282.72
2023-05-24T16:20:52.095Z,100298.50
2023-05-24T16:23:23.359Z,100313.25
2023-05-24T16:25:51.270Z,100314.84
2023-05-24T16:28:24.031Z,100309.47
2023-05-24T16:30:55.433Z,100306.56
2023-05-24T16:33:25.315Z,100310.44
2023-05-24T16:35:56.152Z,100302.72
2023-05-24T16:38:24.214Z,100303.88
2023-05-24T16:40:52.441Z,100305.63
2023-05-24T16:43:20.369Z,100311.94
2023-05-24T16:45:48.457Z,100303.41
2023-05-24T16:48:16.234Z,100300.50
2023-05-24T16:50:45.988Z,100308.41
2023-05-24T16:53:13.783Z,100305.97
2023-05-24T16:55:41.510Z,100303.56
2023-05-24T16:58:09.324Z,100311.94
2023-05-24T17:00:37.100Z,100306.31
2023-05-24T17:03:05.033Z,100310.25
2023-05-24T17:05:32.817Z,100310.97
2023-05-24T17:08:02.177Z,100312.47
2023-05-24T17:10:29.905Z,100309.28
2023-05-24T17:12:57.811Z,100312.50
2023-05-24T17:15:25.489Z,100305.09
2023-05-24T17:17:53.739Z,100308.59
2023-05-24T17:20:21.731Z,100308.03
2023-05-24T17:22:50.698Z,100302.25
2023-05-24T17:25:19.800Z,100307.13
2023-05-24T17:27:47.567Z,100302.34
2023-05-24T17:30:15.346Z,100302.81
2023-05-24T17:32:43.088Z,100308.28
2023-05-24T17:35:11.303Z,100303.63
2023-05-24T17:37:39.034Z,100312.88
2023-05-24T17:40:08.309Z,100319.44
2023-05-24T17:42:37.428Z,100311.47
2023-05-24T17:45:06.799Z,100322.56
2023-05-24T17:47:34.796Z,100319.06
2023-05-24T17:50:02.541Z,100313.81
2023-05-24T17:52:30.257Z,100321.66
2023-05-24T17:54:58.242Z,100318.72
2023-05-24T17:57:26.939Z,100320.56
2023-05-24T17:59:56.050Z,100317.06
2023-05-24T18:02:24.014Z,100324.44
2023-05-24T18:04:52.488Z,100325.69
2023-05-24T18:07:20.489Z,100326.53
2023-05-24T18:09:48.176Z,100324.75
2023-05-24T18:12:16.281Z,100322.94
2023-05-24T18:14:44.484Z,100325.94
2023-05-24T18:17:14.927Z,100327.19
2023-05-24T18:19:42.763Z,100322.81
2023-05-24T18:22:10.809Z,100331.63
2023-05-24T18:24:38.506Z,100337.44
2023-05-24T18:27:06.711Z,100336.66
2023-05-24T18:29:34.605Z,100331.50
2023-05-24T18:32:02.633Z,100337.47
2023-05-24T18:34:31.978Z,100343.72
2023-05-24T18:36:59.805Z,100335.22
2023-05-24T18:39:27.547Z,100342.31
2023-05-24T18:41:55.256Z,100333.63
2023-05-24T18:44:23.182Z,100335.00
2023-05-24T18:46:55.391Z,100328.38
2023-05-24T18:49:24.253Z,100342.59
2023-05-24T18:51:53.295Z,100339.19
2023-05-24T18:54:20.956Z,100341.22
2023-05-24T18:56:48.705Z,100336.88
2023-05-24T18:59:17.478Z,100346.44
2023-05-24T19:01:45.966Z,100341.13
2023-05-24T19:04:13.696Z,100338.91
2023-05-24T19:06:41.712Z,100345.78
2023-05-24T19:09:10.747Z,100339.66
2023-05-24T19:11:38.678Z,100339.03
2023-05-24T19:14:06.381Z,100341.78
2023-05-24T19:16:34.107Z,100343.88
2023-05-24T19:19:02.145Z,100348.19
2023-05-24T19:21:29.957Z,100353.81
2023-05-24T19:23:57.908Z,100351.38
2023-05-24T19:26:27.142Z,100353.88
2023-05-24T19:28:55.266Z,100354.69
2023-05-24T19:31:25.634Z,100367.84
2023-05-24T19:34:00.333Z,100371.38
2023-05-24T19:36:30.878Z,100371.38
2023-05-24T19:38:58.543Z,100373.44
2023-05-24T19:41:28.244Z,100380.63
2023-05-24T19:43:58.371Z,100381.47
2023-05-24T19:46:26.501Z,100358.25
2023-05-24T19:48:54.235Z,100384.13
2023-05-24T19:51:22.365Z,100386.00
2023-05-24T19:53:50.061Z,100400.56
2023-05-24T19:56:17.713Z,100398.91
2023-05-24T19:58:47.244Z,100395.25
2023-05-24T20:01:15.020Z,100399.13
2023-05-24T20:03:48.280Z,100402.41
2023-05-24T20:06:16.666Z,100401.97
2023-05-24T20:08:45.058Z,100403.41
2023-05-24T20:11:14.202Z,100399.47
2023-05-24T20:13:42.135Z,100393.25
2023-05-24T20:16:11.381Z,100397.75
2023-05-24T20:18:39.466Z,100396.72
2023-05-24T20:21:07.263Z,100388.06
2023-05-24T20:23:34.963Z,100391.47
2023-05-24T20:26:03.110Z,100390.81
2023-05-24T20:28:31.957Z,100397.34
2023-05-24T20:31:01.370Z,100399.31
2023-05-24T20:33:30.413Z,100403.19
2023-05-24T20:35:59.472Z,100397.63
2023-05-24T20:38:27.241Z,100401.72
2023-05-24T20:40:54.956Z,100407.25
2023-05-24T20:43:22.903Z,100405.72
2023-05-24T20:45:50.577Z,100409.00
2023-05-24T20:48:19.229Z,100404.53
2023-05-24T20:50:48.314Z,100394.69
2023-05-24T20:53:15.993Z,100396.03
2023-05-24T20:55:44.456Z,100387.22
2023-05-24T20:58:12.557Z,100386.63
2023-05-24T21:00:41.052Z,100391.28
2023-05-24T21:03:09.738Z,100390.84
2023-05-24T21:05:39.877Z,100391.94
2023-05-24T21:08:08.960Z,100386.75
2023-05-24T21:10:37.988Z,100394.47
2023-05-24T21:13:06.200Z,100392.69
2023-05-24T21:15:33.942Z,100390.53
2023-05-24T21:18:02.003Z,100397.25
2023-05-24T21:20:29.736Z,100394.38
2023-05-24T21:22:57.406Z,100395.13
2023-05-24T21:25:26.390Z,100402.72
2023-05-24T21:27:53.991Z,100400.44
2023-05-24T21:30:21.957Z,100399.34
2023-05-24T21:32:49.700Z,100399.63
2023-05-24T21:35:17.761Z,100393.09
2023-05-24T21:37:45.376Z,100401.25
2023-05-24T21:40:13.909Z,100396.44
2023-05-24T21:42:43.234Z,100388.69
2023-05-24T21:45:12.642Z,100402.94
2023-05-24T21:47:40.630Z,100399.75
2023-05-24T21:50:09.254Z,100392.16
2023-05-24T21:52:37.187Z,100398.31
2023-05-24T21:55:05.572Z,100401.34
2023-05-24T21:57:33.431Z,100402.75
2023-05-24T22:00:02.545Z,100403.22
2023-05-24T22:02:33.294Z,100419.41
2023-05-24T22:05:01.240Z,100413.22
2023-05-24T22:07:29.097Z,100410.69
2023-05-24T22:09:57.216Z,100416.41
2023-05-24T22:12:24.958Z,100416.09
2023-05-24T22:14:53.500Z,100416.41
2023-05-24T22:17:22.834Z,100415.88
2023-05-24T22:19:50.697Z,100414.94
2023-05-24T22:22:19.537Z,100414.31
2023-05-24T22:24:48.676Z,100415.72
2023-05-24T22:27:16.877Z,100417.34
2023-05-24T22:29:44.876Z,100418.19
2023-05-24T22:32:12.741Z,100421.03
2023-05-24T22:34:42.190Z,100411.97
2023-05-24T22:37:09.890Z,100420.97
2023-05-24T22:39:37.575Z,100416.53
2023-05-24T22:42:06.016Z,100413.88
2023-05-24T22:44:33.761Z,100420.78
2023-05-24T22:47:02.242Z,100418.88
2023-05-24T22:49:33.908Z,100425.03
2023-05-24T22:52:03.590Z,100415.66
2023-05-24T22:54:31.271Z,100414.41
2023-05-24T22:56:59.005Z,100418.81
2023-05-24T22:59:27.094Z,100425.69
2023-05-24T23:01:54.993Z,100419.19
2023-05-24T23:04:23.273Z,100427.75
2023-05-24T23:06:52.572Z,100423.09
2023-05-24T23:09:35.050Z,100421.31
2023-05-24T23:12:08.034Z,100424.75
2023-05-24T23:14:38.603Z,100418.03
2023-05-24T23:17:06.871Z,100417.16
2023-05-24T23:19:34.928Z,100417.59
2023-05-24T23:22:03.430Z,100418.38
2023-05-24T23:24:34.526Z,100416.69
2023-05-24T23:27:02.290Z,100411.13
2023-05-24T23:29:29.920Z,100409.31
2023-05-24T23:31:57.753Z,100413.00
2023-05-24T23:34:25.406Z,100422.47
2023-05-24T23:36:53.470Z,100421.91
2023-05-24T23:39:21.356Z,100417.84
2023-05-24T23:41:50.552Z,100418.69
2023-05-24T23:44:18.163Z,100421.31
2023-05-24T23:46:45.874Z,100422.97
2023-05-24T23:49:13.864Z,100418.00
2023-05-24T23:51:41.546Z,100415.72
2023-05-24T23:54:09.451Z,100413.63
2023-05-24T23:56:39.030Z,100409.41
2023-05-24T23:59:08.313Z,100414.06
